11:02
Airports
History
Links
Donate
Help keep this website running!
PayPal
Bitcoin
Information on this page is community maintained and may be outdated or inaccurate and is intended for reference only or PC simulator navigating!
Always use approved charts for navigating.
SBLO
Londrina
Londrina (SBLO)
Londrina, Parana, Brazil (86040)
(C)
Lat/Lng:23° 20' 1.05" S / 51° 7' 48.26" W
-23.333624 / -51.130073
Elevation:1867'ft 569mMSL
ID / ICAO:SBLO
Runways:1
Longest:(13-31) 2,108.2m 6,917ft Asphalt
Controlled:Yes
Distance To
Airport ID:
Airport Radio Frequencies
ATIS: 127.67
Tower: 118.4
Approach: 129.69, 129.7
METARUpdated 04-30-17 11:00 GMT
Altimeter: 30.24
Visibility: 6.2 statute miles
Wind: 7 knots (120°)
Temp: 16°c 61°f
Humidity: 82.4%

METAR: SBLO 301100Z 12007KT CAVOK 16/13 Q1024

(Powered by phpweather)
Runway 13 / 31
Dimensions:2108.2 x 45.1m 6917' x 148'ft
Surface:Asphalt
Edge Lights:Low intensity
Runway 13 [A]Runway 31 [B]
Heading:110°TH 290°TH
Lat:
Lng:
23° 19' 49.2"S
51° 8' 23.16"W
23° 20' 12.89"S
51° 7' 13.36"W
Google Map
Nearby Airports
4 14 Bis 9.0 NM
SSOK NNW 336°
4 Fazenda Santa Maria 15.8 NM
SSWM SW 223°
(C) Sertanopolis 20.2 NM
SSSZ NNE 21°
(C) Arapongas 23.0 NM
SSOG W 266°
4 Fazenda Congonhas 23.9 NM
SSXA NNE 31°
(C) Apucarana 25.0 NM
SSAP SW 220°
4 Tamarana Metais 25.8 NM
SNET S 177°
VFR Chart
Flight Planning at SkyVector.com